createdAt,value
2023-04-11T00:00:41.498Z,20.63
2023-04-11T00:01:41.066Z,20.63
2023-04-11T00:02:41.056Z,20.63
2023-04-11T00:03:41.008Z,20.63
2023-04-11T00:04:40.915Z,20.64
2023-04-11T00:05:40.797Z,20.63
2023-04-11T00:06:40.759Z,20.63
2023-04-11T00:07:40.721Z,20.63
2023-04-11T00:08:40.699Z,20.63
2023-04-11T00:09:40.644Z,20.63
2023-04-11T00:10:40.683Z,20.64
2023-04-11T00:11:40.565Z,20.63
2023-04-11T00:12:40.531Z,20.63
2023-04-11T00:13:40.495Z,20.63
2023-04-11T00:14:40.462Z,20.64
2023-04-11T00:15:40.420Z,20.64
2023-04-11T00:16:40.442Z,20.63
2023-04-11T00:17:40.376Z,20.64
2023-04-11T00:18:40.325Z,20.63
2023-04-11T00:19:40.292Z,20.64
2023-04-11T00:20:40.270Z,20.63
2023-04-11T00:21:40.333Z,20.64
2023-04-11T00:22:40.189Z,20.63
2023-04-11T00:23:40.159Z,20.64
2023-04-11T00:24:40.245Z,20.64
2023-04-11T00:25:40.092Z,20.64
2023-04-11T00:26:40.064Z,20.64
2023-04-11T00:27:40.029Z,20.63
2023-04-11T00:28:39.986Z,20.63
2023-04-11T00:29:39.948Z,20.63
2023-04-11T00:30:39.913Z,20.63
2023-04-11T00:31:39.929Z,20.63
2023-04-11T00:32:39.891Z,20.63
2023-04-11T00:33:40.965Z,20.64
2023-04-11T00:34:39.772Z,20.63
2023-04-11T00:35:39.783Z,20.63
2023-04-11T00:36:39.781Z,20.63
2023-04-11T00:37:39.663Z,20.64
2023-04-11T00:38:39.637Z,20.63
2023-04-11T00:39:39.604Z,20.63
2023-04-11T00:40:39.569Z,20.63
2023-04-11T00:41:39.538Z,20.63
2023-04-11T00:42:39.549Z,20.63
2023-04-11T00:43:39.458Z,20.63
2023-04-11T00:44:39.418Z,20.63
2023-04-11T00:45:39.412Z,20.63
2023-04-11T00:46:39.422Z,20.63
2023-04-11T00:47:39.338Z,20.63
2023-04-11T00:48:39.278Z,20.64
2023-04-11T00:49:39.245Z,20.63
2023-04-11T00:50:39.190Z,20.64
2023-04-11T00:51:39.159Z,20.64
2023-04-11T00:52:39.214Z,20.64
2023-04-11T00:53:39.079Z,20.64
2023-04-11T00:54:39.033Z,20.64
2023-04-11T00:55:39.007Z,20.63
2023-04-11T00:56:38.961Z,20.64
2023-04-11T00:57:38.962Z,20.63
2023-04-11T00:58:39.006Z,20.63
2023-04-11T00:59:38.842Z,20.63
2023-04-11T01:00:38.846Z,20.63
2023-04-11T01:01:38.880Z,20.63
2023-04-11T01:02:38.954Z,20.63
2023-04-11T01:03:38.791Z,20.62
2023-04-11T01:04:38.647Z,20.62
2023-04-11T01:05:38.611Z,20.63
2023-04-11T01:06:38.569Z,20.63
2023-04-11T01:07:38.541Z,20.63
2023-04-11T01:08:38.507Z,20.63
2023-04-11T01:09:38.471Z,20.63
2023-04-11T01:10:38.431Z,20.63
2023-04-11T01:11:38.461Z,20.64
2023-04-11T01:12:38.340Z,20.63
2023-04-11T01:13:38.299Z,20.62
2023-04-11T01:14:38.255Z,20.63
2023-04-11T01:15:38.285Z,20.63
2023-04-11T01:16:38.202Z,20.64
2023-04-11T01:17:38.171Z,20.63
2023-04-11T01:18:38.119Z,20.63
2023-04-11T01:19:38.066Z,20.63
2023-04-11T01:20:38.043Z,20.62
2023-04-11T01:21:38.001Z,20.62
2023-04-11T01:22:38.012Z,20.63
2023-04-11T01:23:37.925Z,20.63
2023-04-11T01:24:37.886Z,20.63
2023-04-11T01:25:37.843Z,20.62
2023-04-11T01:26:37.813Z,20.62
2023-04-11T01:27:37.796Z,20.63
2023-04-11T01:28:37.737Z,20.63
2023-04-11T01:29:37.718Z,20.63
2023-04-11T01:30:37.833Z,20.63
2023-04-11T01:31:37.621Z,20.64
2023-04-11T01:32:37.604Z,20.63
2023-04-11T01:33:37.547Z,20.64
2023-04-11T01:34:38.502Z,20.65
2023-04-11T01:35:37.544Z,20.64
2023-04-11T01:36:37.474Z,20.64
2023-04-11T01:37:37.448Z,20.65
2023-04-11T01:38:37.420Z,20.65
2023-04-11T01:39:37.454Z,20.64
2023-04-11T01:40:37.993Z,20.65
2023-04-11T01:41:37.352Z,20.64
2023-04-11T01:42:37.382Z,20.64
2023-04-11T01:43:37.307Z,20.64
2023-04-11T01:44:37.278Z,20.64
2023-04-11T01:45:37.252Z,20.64
2023-04-11T01:46:37.233Z,20.65
2023-04-11T01:47:37.270Z,20.64
2023-04-11T01:48:37.264Z,20.65
2023-04-11T01:49:37.176Z,20.64
2023-04-11T01:50:37.147Z,20.64
2023-04-11T01:51:37.118Z,20.64
2023-04-11T01:52:37.096Z,20.64
2023-04-11T01:53:37.079Z,20.64
2023-04-11T01:54:37.058Z,20.63
2023-04-11T01:55:37.059Z,20.63
2023-04-11T01:56:37.007Z,20.63
2023-04-11T01:57:36.991Z,20.63
2023-04-11T01:58:36.979Z,20.63
2023-04-11T01:59:36.953Z,20.63
2023-04-11T02:00:36.944Z,20.63
2023-04-11T02:01:36.962Z,20.64
2023-04-11T02:02:36.958Z,20.64
2023-04-11T02:03:37.114Z,20.64
2023-04-11T02:04:36.854Z,20.63
2023-04-11T02:05:36.828Z,20.63
2023-04-11T02:06:36.807Z,20.63
2023-04-11T02:07:36.813Z,20.63
2023-04-11T02:08:36.796Z,20.64
2023-04-11T02:09:36.756Z,20.64
2023-04-11T02:10:36.741Z,20.64
2023-04-11T02:11:36.745Z,20.64
2023-04-11T02:12:36.704Z,20.64
2023-04-11T02:13:36.698Z,20.63
2023-04-11T02:14:36.662Z,20.64
2023-04-11T02:15:36.680Z,20.64
2023-04-11T02:16:36.619Z,20.64
2023-04-11T02:17:36.630Z,20.64
2023-04-11T02:18:36.580Z,20.63
2023-04-11T02:19:36.560Z,20.63
2023-04-11T02:20:36.537Z,20.63
2023-04-11T02:21:36.518Z,20.63
2023-04-11T02:22:36.575Z,20.63
2023-04-11T02:23:36.474Z,20.63
2023-04-11T02:24:36.468Z,20.63
2023-04-11T02:25:36.428Z,20.63
2023-04-11T02:26:36.423Z,20.63
2023-04-11T02:27:36.423Z,20.63
2023-04-11T02:28:36.371Z,20.63
2023-04-11T02:29:36.356Z,20.63
2023-04-11T02:30:36.331Z,20.63
2023-04-11T02:31:36.413Z,20.63
2023-04-11T02:32:36.329Z,20.63
2023-04-11T02:33:36.343Z,20.63
2023-04-11T02:34:36.267Z,20.63
2023-04-11T02:36:36.236Z,20.63
2023-04-11T02:37:36.213Z,20.64
2023-04-11T02:38:36.190Z,20.63
2023-04-11T02:39:36.169Z,20.63
2023-04-11T02:40:36.148Z,20.64
2023-04-11T02:41:36.131Z,20.64
2023-04-11T02:42:36.108Z,20.64
2023-04-11T02:43:36.509Z,20.64
2023-04-11T02:44:36.085Z,20.63
2023-04-11T02:45:36.058Z,20.64
2023-04-11T02:46:36.104Z,20.63
2023-04-11T02:47:36.047Z,20.64
2023-04-11T02:48:36.005Z,20.64
2023-04-11T02:49:35.970Z,20.64
2023-04-11T02:50:35.953Z,20.63
2023-04-11T02:51:35.941Z,20.64
2023-04-11T02:52:35.912Z,20.64
2023-04-11T02:53:35.897Z,20.64
2023-04-11T02:54:35.868Z,20.64
2023-04-11T02:55:35.853Z,20.64
2023-04-11T02:56:35.831Z,20.64
2023-04-11T02:57:35.878Z,20.64
2023-04-11T02:58:35.799Z,20.63
2023-04-11T02:59:35.767Z,20.64
2023-04-11T03:00:35.757Z,20.64
2023-04-11T03:01:35.816Z,20.65
2023-04-11T03:02:35.767Z,20.65
2023-04-11T03:03:35.799Z,20.65
2023-04-11T03:04:35.780Z,20.66
2023-04-11T03:05:35.671Z,20.65
2023-04-11T03:06:35.635Z,20.65
2023-04-11T03:07:35.610Z,20.64
2023-04-11T03:08:35.593Z,20.65
2023-04-11T03:09:35.564Z,20.65
2023-04-11T03:10:35.550Z,20.65
2023-04-11T03:11:35.535Z,20.65
2023-04-11T03:12:35.501Z,20.64
2023-04-11T03:13:35.484Z,20.64
2023-04-11T03:14:35.461Z,20.64
2023-04-11T03:15:35.531Z,20.64
2023-04-11T03:16:35.998Z,20.65
2023-04-11T03:17:35.417Z,20.64
2023-04-11T03:18:35.432Z,20.64
2023-04-11T03:19:35.362Z,20.63
2023-04-11T03:20:35.418Z,20.63
2023-04-11T03:21:35.322Z,20.63
2023-04-11T03:22:35.310Z,20.63
2023-04-11T03:23:35.297Z,20.63
2023-04-11T03:24:35.311Z,20.63
2023-04-11T03:25:35.264Z,20.63
2023-04-11T03:26:35.250Z,20.62
2023-04-11T03:27:35.231Z,20.63
2023-04-11T03:28:35.220Z,20.63
2023-04-11T03:29:35.195Z,20.63
2023-04-11T03:30:35.169Z,20.63
2023-04-11T03:31:35.184Z,20.63
2023-04-11T03:32:35.149Z,20.63
2023-04-11T03:33:35.128Z,20.63
2023-04-11T03:34:35.109Z,20.63
2023-04-11T03:35:35.111Z,20.63
2023-04-11T03:36:35.068Z,20.63
2023-04-11T03:37:35.045Z,20.64
2023-04-11T03:38:35.023Z,20.63
2023-04-11T03:39:35.005Z,20.63
2023-04-11T03:40:35.010Z,20.63
2023-04-11T03:41:34.985Z,20.62
2023-04-11T03:42:34.962Z,20.63
2023-04-11T03:43:34.941Z,20.62
2023-04-11T03:44:34.948Z,20.63
2023-04-11T03:45:35.493Z,20.63
2023-04-11T03:46:37.520Z,20.63
2023-04-11T03:47:35.124Z,20.63
2023-04-11T03:48:35.496Z,20.64
2023-04-11T03:49:35.143Z,20.64
2023-04-11T03:50:35.020Z,20.64
2023-04-11T03:51:34.988Z,20.64
2023-04-11T03:52:34.965Z,20.64
2023-04-11T03:53:34.951Z,20.64
2023-04-11T03:54:34.952Z,20.65
2023-04-11T03:55:34.875Z,20.65
2023-04-11T03:56:34.847Z,20.65
2023-04-11T03:57:34.822Z,20.65
2023-04-11T03:58:34.795Z,20.65
2023-04-11T03:59:34.754Z,20.64
2023-04-11T04:00:34.718Z,20.64
2023-04-11T04:01:34.713Z,20.64
2023-04-11T04:02:34.784Z,20.64
2023-04-11T04:03:34.930Z,20.64
2023-04-11T04:04:34.645Z,20.64
2023-04-11T04:05:34.581Z,20.64
2023-04-11T04:06:34.542Z,20.64
2023-04-11T04:07:34.509Z,20.65
2023-04-11T04:08:34.480Z,20.64
2023-04-11T04:09:34.466Z,20.63
2023-04-11T04:10:34.409Z,20.63
2023-04-11T04:11:34.387Z,20.64
2023-04-11T04:12:34.354Z,20.64
2023-04-11T04:13:34.344Z,20.64
2023-04-11T04:14:34.347Z,20.65
2023-04-11T04:15:34.337Z,20.63
2023-04-11T04:16:34.309Z,20.65
2023-04-11T04:17:34.305Z,20.64
2023-04-11T04:18:34.231Z,20.64
2023-04-11T04:19:34.197Z,20.63
2023-04-11T04:20:34.171Z,20.63
2023-04-11T04:21:34.142Z,20.63
2023-04-11T04:22:34.111Z,20.63
2023-04-11T04:23:34.093Z,20.63
2023-04-11T04:24:34.056Z,20.63
2023-04-11T04:25:34.030Z,20.63
2023-04-11T04:26:33.995Z,20.63
2023-04-11T04:27:33.972Z,20.63
2023-04-11T04:28:33.968Z,20.64
2023-04-11T04:29:33.937Z,20.63
2023-04-11T04:30:33.896Z,20.64
2023-04-11T04:31:34.142Z,20.64
2023-04-11T04:32:33.925Z,20.64
2023-04-11T04:33:33.810Z,20.64
2023-04-11T04:34:33.764Z,20.64
2023-04-11T04:35:33.751Z,20.65
2023-04-11T04:36:34.486Z,20.64
2023-04-11T04:37:33.677Z,20.64
2023-04-11T04:38:33.638Z,20.64
2023-04-11T04:39:33.606Z,20.64
2023-04-11T04:40:33.582Z,20.65
2023-04-11T04:41:34.000Z,20.64
2023-04-11T04:42:33.528Z,20.64
2023-04-11T04:43:33.498Z,20.64
2023-04-11T04:44:33.458Z,20.65
2023-04-11T04:45:33.448Z,20.64
2023-04-11T04:46:33.396Z,20.65
2023-04-11T04:47:33.432Z,20.65
2023-04-11T04:48:33.327Z,20.65
2023-04-11T04:49:33.296Z,20.64
2023-04-11T04:50:33.262Z,20.65
2023-04-11T04:51:33.235Z,20.65
2023-04-11T04:52:33.262Z,20.65
2023-04-11T04:53:33.176Z,20.65
2023-04-11T04:54:33.141Z,20.65
2023-04-11T04:55:33.109Z,20.65
2023-04-11T04:56:33.070Z,20.65
2023-04-11T04:57:33.039Z,20.64
2023-04-11T04:58:33.008Z,20.65
2023-04-11T04:59:32.963Z,20.65
2023-04-11T05:00:32.933Z,20.65
2023-04-11T05:01:33.022Z,20.64
2023-04-11T05:02:32.987Z,20.65
2023-04-11T05:03:33.069Z,20.64
2023-04-11T05:04:32.866Z,20.66
2023-04-11T05:05:32.808Z,20.65
2023-04-11T05:06:32.747Z,20.65
2023-04-11T05:07:32.735Z,20.65
2023-04-11T05:08:32.676Z,20.64
2023-04-11T05:09:32.646Z,20.65
2023-04-11T05:10:32.615Z,20.65
2023-04-11T05:11:32.614Z,20.65
2023-04-11T05:12:32.589Z,20.66
2023-04-11T05:13:32.562Z,20.66
2023-04-11T05:14:32.538Z,20.67
2023-04-11T05:15:32.516Z,20.67
2023-04-11T05:16:32.549Z,20.67
2023-04-11T05:17:32.860Z,20.69
2023-04-11T05:18:32.720Z,20.68
2023-04-11T05:19:32.522Z,20.68
2023-04-11T05:20:32.593Z,20.68
2023-04-11T05:21:32.396Z,20.64
2023-04-11T05:22:32.728Z,20.64
2023-04-11T05:23:32.674Z,20.65
2023-04-11T05:24:32.417Z,20.66
2023-04-11T05:25:32.353Z,20.63
2023-04-11T05:26:32.377Z,20.61
2023-04-11T05:27:32.297Z,20.55
2023-04-11T05:28:32.342Z,20.57
2023-04-11T05:29:32.270Z,20.58
2023-04-11T05:30:32.201Z,20.54
2023-04-11T05:31:32.165Z,20.54
2023-04-11T05:32:32.203Z,20.53
2023-04-11T05:33:32.079Z,20.54
2023-04-11T05:34:32.058Z,20.55
2023-04-11T05:35:32.059Z,20.56
2023-04-11T05:36:32.906Z,20.54
2023-04-11T05:37:31.955Z,20.55
2023-04-11T05:38:31.920Z,20.55
2023-04-11T05:39:31.962Z,20.56
2023-04-11T05:40:31.993Z,20.57
2023-04-11T05:41:31.831Z,20.57
2023-04-11T05:42:31.799Z,20.57
2023-04-11T05:43:31.781Z,20.58
2023-04-11T05:44:31.736Z,20.59
2023-04-11T05:45:32.429Z,20.59
2023-04-11T05:46:31.795Z,20.60
2023-04-11T05:47:31.675Z,20.61
2023-04-11T05:48:31.612Z,20.62
2023-04-11T05:49:31.591Z,20.62
2023-04-11T05:50:31.540Z,20.63
2023-04-11T05:51:31.554Z,20.64
2023-04-11T05:52:31.495Z,20.65
2023-04-11T05:53:31.490Z,20.64
2023-04-11T05:54:31.484Z,20.65
2023-04-11T05:55:31.991Z,20.66
2023-04-11T05:56:31.410Z,20.66
2023-04-11T05:57:31.379Z,20.66
2023-04-11T05:58:31.342Z,20.66
2023-04-11T05:59:31.314Z,20.67
2023-04-11T06:00:31.301Z,20.67
2023-04-11T06:01:31.246Z,20.66
2023-04-11T06:02:31.326Z,20.66
2023-04-11T06:03:31.264Z,20.66
2023-04-11T06:04:31.352Z,20.68
2023-04-11T06:05:31.125Z,20.67
2023-04-11T06:06:31.117Z,20.67
2023-04-11T06:07:31.122Z,20.67
2023-04-11T06:08:31.019Z,20.68
2023-04-11T06:09:32.679Z,20.69
2023-04-11T06:10:31.003Z,20.68
2023-04-11T06:11:30.898Z,20.69
2023-04-11T06:12:30.842Z,20.69
2023-04-11T06:13:30.808Z,20.69
2023-04-11T06:14:31.484Z,20.69
2023-04-11T06:15:30.707Z,20.69
2023-04-11T06:16:30.793Z,20.69
2023-04-11T06:17:30.654Z,20.69
2023-04-11T06:18:30.614Z,20.69
2023-04-11T06:19:30.548Z,20.69
2023-04-11T06:20:30.601Z,20.69
2023-04-11T06:21:31.024Z,20.69
2023-04-11T06:22:30.441Z,20.70
2023-04-11T06:23:30.399Z,20.70
2023-04-11T06:24:30.416Z,20.72
2023-04-11T06:25:30.302Z,20.74
2023-04-11T06:26:30.291Z,20.76
2023-04-11T06:27:30.985Z,20.79
2023-04-11T06:28:30.177Z,20.81
2023-04-11T06:29:30.148Z,20.84
2023-04-11T06:30:30.221Z,20.85
2023-04-11T06:31:30.082Z,20.85
2023-04-11T06:32:30.042Z,20.85
2023-04-11T06:33:29.961Z,20.84
2023-04-11T06:34:29.934Z,20.83
2023-04-11T06:35:29.884Z,20.82
2023-04-11T06:36:30.535Z,20.80
2023-04-11T06:37:29.793Z,20.79
2023-04-11T06:38:29.760Z,20.77
2023-04-11T06:39:29.781Z,20.76
2023-04-11T06:40:29.721Z,20.76
2023-04-11T06:41:29.652Z,20.74
2023-04-11T06:42:29.603Z,20.73
2023-04-11T06:43:29.559Z,20.72
2023-04-11T06:44:29.574Z,20.72
2023-04-11T06:45:29.477Z,20.71
2023-04-11T06:46:29.458Z,20.72
2023-04-11T06:47:29.430Z,20.71
2023-04-11T06:48:29.341Z,20.72
2023-04-11T06:49:29.325Z,20.72
2023-04-11T06:50:29.354Z,20.71
2023-04-11T06:51:29.222Z,20.72
2023-04-11T06:52:29.179Z,20.72
2023-04-11T06:53:29.132Z,20.71
2023-04-11T06:54:29.084Z,20.71
2023-04-11T06:55:29.990Z,20.71
2023-04-11T06:56:29.052Z,20.69
2023-04-11T06:57:28.971Z,20.69
2023-04-11T06:58:28.950Z,20.68
2023-04-11T06:59:28.891Z,20.67
2023-04-11T07:00:28.860Z,20.66
2023-04-11T07:01:28.926Z,20.65
2023-04-11T07:02:28.963Z,20.63
2023-04-11T07:03:28.818Z,20.63
2023-04-11T07:04:28.833Z,20.62
2023-04-11T07:05:28.636Z,20.61
2023-04-11T07:06:28.602Z,20.61
2023-04-11T07:07:28.563Z,20.61
2023-04-11T07:08:28.536Z,20.61
2023-04-11T07:09:28.481Z,20.62
2023-04-11T07:10:28.455Z,20.63
2023-04-11T07:11:28.387Z,20.63
2023-04-11T07:12:28.346Z,20.63
2023-04-11T07:13:28.314Z,20.64
2023-04-11T07:14:28.322Z,20.65
2023-04-11T07:15:28.363Z,20.66
2023-04-11T07:16:29.246Z,20.69
2023-04-11T07:17:28.204Z,20.72
2023-04-11T07:18:28.102Z,20.72
2023-04-11T07:19:28.046Z,20.73
2023-04-11T07:20:28.057Z,20.74
2023-04-11T07:21:27.993Z,20.79
2023-04-11T07:22:27.943Z,20.80
2023-04-11T07:23:27.928Z,20.84
2023-04-11T07:24:27.858Z,20.85
2023-04-11T07:25:27.916Z,20.88
2023-04-11T07:26:27.771Z,20.89
2023-04-11T07:27:27.719Z,20.88
2023-04-11T07:28:27.693Z,20.87
2023-04-11T07:29:27.787Z,20.86
2023-04-11T07:30:27.634Z,20.85
2023-04-11T07:31:27.630Z,20.83
2023-04-11T07:32:27.585Z,20.82
2023-04-11T07:33:27.490Z,20.81
2023-04-11T07:34:27.440Z,20.80
2023-04-11T07:35:27.423Z,20.79
2023-04-11T07:36:27.381Z,20.78
2023-04-11T07:37:27.316Z,20.78
2023-04-11T07:38:27.277Z,20.78
2023-04-11T07:39:27.240Z,20.78
2023-04-11T07:40:27.203Z,20.78
2023-04-11T07:41:27.158Z,20.77
2023-04-11T07:42:27.113Z,20.78
2023-04-11T07:43:27.278Z,20.78
2023-04-11T07:44:27.335Z,20.78
2023-04-11T07:45:27.025Z,20.78
2023-04-11T07:46:27.046Z,20.76
2023-04-11T07:47:26.925Z,20.75
2023-04-11T07:48:26.960Z,20.75
2023-04-11T07:49:26.841Z,20.75
2023-04-11T07:50:26.795Z,20.75
2023-04-11T07:51:26.745Z,20.75
2023-04-11T07:52:26.736Z,20.75
2023-04-11T07:53:26.666Z,20.75
2023-04-11T07:54:26.628Z,20.76
2023-04-11T07:55:26.596Z,20.75
2023-04-11T07:56:26.569Z,20.75
2023-04-11T07:57:26.572Z,20.76
2023-04-11T07:58:26.658Z,20.76
2023-04-11T07:59:26.586Z,20.76
2023-04-11T08:00:26.614Z,20.76
2023-04-11T08:01:26.701Z,20.77
2023-04-11T08:02:26.787Z,20.77
2023-04-11T08:03:27.136Z,20.78
2023-04-11T08:04:26.847Z,20.78
2023-04-11T08:05:26.868Z,20.78
2023-04-11T08:06:26.982Z,20.77
2023-04-11T08:07:26.793Z,20.76
2023-04-11T08:08:26.727Z,20.76
2023-04-11T08:09:26.714Z,20.76
2023-04-11T08:10:26.677Z,20.76
2023-04-11T08:11:26.656Z,20.73
2023-04-11T08:12:26.638Z,20.71
2023-04-11T08:13:26.632Z,20.74
2023-04-11T08:14:26.747Z,20.79
2023-04-11T08:15:26.655Z,20.81
2023-04-11T08:16:26.853Z,20.84
2023-04-11T08:17:28.610Z,20.88
2023-04-11T08:18:26.603Z,20.91
2023-04-11T08:19:26.516Z,20.92
2023-04-11T08:20:26.490Z,20.95
2023-04-11T08:21:26.472Z,20.97
2023-04-11T08:22:27.056Z,20.99
2023-04-11T08:23:26.433Z,21.00
2023-04-11T08:24:26.418Z,21.01
2023-04-11T08:25:26.432Z,21.02
2023-04-11T08:26:26.370Z,21.05
2023-04-11T08:27:26.353Z,21.08
2023-04-11T08:28:26.385Z,21.10
2023-04-11T08:29:26.405Z,21.10
2023-04-11T08:30:26.504Z,21.10
2023-04-11T08:31:26.613Z,21.09
2023-04-11T08:32:26.523Z,21.08
2023-04-11T08:33:26.510Z,21.07
2023-04-11T08:34:26.548Z,21.05
2023-04-11T08:35:26.574Z,21.04
2023-04-11T08:36:26.599Z,21.02
2023-04-11T08:37:26.620Z,21.01
2023-04-11T08:38:26.649Z,20.99
2023-04-11T08:39:26.700Z,20.97
2023-04-11T08:40:27.207Z,20.96
2023-04-11T08:41:26.713Z,20.94
2023-04-11T08:42:26.722Z,20.93
2023-04-11T08:43:26.843Z,20.93
2023-04-11T08:44:27.485Z,20.91
2023-04-11T08:45:26.841Z,20.91
2023-04-11T08:46:26.921Z,20.91
2023-04-11T08:47:27.930Z,20.91
2023-04-11T08:48:26.941Z,20.90
2023-04-11T08:49:27.029Z,20.88
2023-04-11T08:50:27.093Z,20.89
2023-04-11T08:51:27.015Z,20.89
2023-04-11T08:52:27.055Z,20.88
2023-04-11T08:53:27.119Z,20.88
2023-04-11T08:54:27.224Z,20.87
2023-04-11T08:55:27.165Z,20.86
2023-04-11T08:56:27.183Z,20.86
2023-04-11T08:57:27.206Z,20.87
2023-04-11T08:58:27.233Z,20.87
2023-04-11T08:59:27.493Z,20.88
2023-04-11T09:00:27.273Z,20.87
2023-04-11T09:01:27.383Z,20.87
2023-04-11T09:02:27.567Z,20.87
2023-04-11T09:03:28.037Z,20.87
2023-04-11T09:04:27.398Z,20.86
2023-04-11T09:05:27.401Z,20.86
2023-04-11T09:06:27.423Z,20.85
2023-04-11T09:07:27.431Z,20.86
2023-04-11T09:08:27.452Z,20.86
2023-04-11T09:09:27.480Z,20.86
2023-04-11T09:10:27.490Z,20.86
2023-04-11T09:11:27.494Z,20.90
2023-04-11T09:12:29.281Z,20.92
2023-04-11T09:13:27.527Z,20.93
2023-04-11T09:14:27.627Z,20.93
2023-04-11T09:15:27.628Z,20.91
2023-04-11T09:16:27.615Z,20.87
2023-04-11T09:17:27.583Z,20.89
2023-04-11T09:18:27.549Z,20.87
2023-04-11T09:19:27.533Z,20.88
2023-04-11T09:20:28.495Z,20.90
2023-04-11T09:21:28.109Z,20.94
2023-04-11T09:22:28.675Z,20.95
2023-04-11T09:23:27.532Z,20.97
2023-04-11T09:24:27.430Z,20.99
2023-04-11T09:25:27.372Z,21.00
2023-04-11T09:26:27.297Z,21.01
2023-04-11T09:27:27.345Z,21.01
2023-04-11T09:28:28.027Z,21.00
2023-04-11T09:29:27.210Z,20.99
2023-04-11T09:30:27.176Z,20.99
2023-04-11T09:31:27.244Z,20.98
2023-04-11T09:32:27.313Z,20.97
2023-04-11T09:33:27.233Z,20.94
2023-04-11T09:34:28.019Z,20.91
2023-04-11T09:35:27.274Z,20.87
2023-04-11T09:36:27.390Z,20.83
2023-04-11T09:37:29.989Z,20.80
2023-04-11T09:38:27.235Z,20.78
2023-04-11T09:39:27.203Z,20.76
2023-04-11T09:40:27.226Z,20.73
2023-04-11T09:41:27.157Z,20.69
2023-04-11T09:42:27.111Z,20.67
2023-04-11T09:43:27.086Z,20.65
2023-04-11T09:44:27.029Z,20.63
2023-04-11T09:45:26.995Z,20.61
2023-04-11T09:46:27.046Z,20.59
2023-04-11T09:47:27.121Z,20.57
2023-04-11T09:48:39.793Z,20.55
2023-04-11T09:49:28.002Z,20.53
2023-04-11T09:50:26.860Z,20.53
2023-04-11T09:52:26.782Z,20.53
2023-04-11T09:53:26.770Z,20.52
2023-04-11T09:54:26.723Z,20.52
2023-04-11T09:55:26.704Z,20.52
2023-04-11T09:56:26.886Z,20.53
2023-04-11T09:57:26.619Z,20.53
2023-04-11T09:58:26.591Z,20.52
2023-04-11T09:59:27.411Z,20.53
2023-04-11T10:00:26.527Z,20.53
2023-04-11T10:01:26.521Z,20.55
2023-04-11T10:02:26.569Z,20.56
2023-04-11T10:03:26.514Z,20.59
2023-04-11T10:04:26.439Z,20.60
2023-04-11T10:05:26.365Z,20.63
2023-04-11T10:06:26.989Z,20.65
2023-04-11T10:07:26.342Z,20.67
2023-04-11T10:08:26.255Z,20.68
2023-04-11T10:09:26.350Z,20.69
2023-04-11T10:10:26.794Z,20.70
2023-04-11T10:11:26.201Z,20.72
2023-04-11T10:12:26.144Z,20.73
2023-04-11T10:13:26.102Z,20.76
2023-04-11T10:14:27.127Z,20.78
2023-04-11T10:15:26.228Z,20.92
2023-04-11T10:16:26.067Z,20.88
2023-04-11T10:17:26.440Z,20.85
2023-04-11T10:18:26.018Z,20.82
2023-04-11T10:19:25.948Z,20.80
2023-04-11T10:20:25.960Z,20.76
2023-04-11T10:21:25.897Z,20.73
2023-04-11T10:22:25.925Z,20.70
2023-04-11T10:23:26.696Z,20.68
2023-04-11T10:24:25.820Z,20.65
2023-04-11T10:25:25.823Z,20.63
2023-04-11T10:26:25.772Z,20.62
2023-04-11T10:27:25.740Z,20.61
2023-04-11T10:28:27.400Z,20.60
2023-04-11T10:29:25.696Z,20.58
2023-04-11T10:30:25.765Z,20.58
2023-04-11T10:31:25.690Z,20.58
2023-04-11T10:32:25.645Z,20.56
2023-04-11T10:33:25.592Z,20.56
2023-04-11T10:34:25.561Z,20.55
2023-04-11T10:35:25.582Z,20.55
2023-04-11T10:36:26.497Z,20.55
2023-04-11T10:37:25.598Z,20.54
2023-04-11T10:38:26.085Z,20.54
2023-04-11T10:39:25.444Z,20.54
2023-04-11T10:40:25.462Z,20.51
2023-04-11T10:41:25.502Z,20.52
2023-04-11T10:42:25.757Z,20.52
2023-04-11T10:43:25.576Z,20.53
2023-04-11T10:44:25.736Z,20.53
2023-04-11T10:45:25.653Z,20.54
2023-04-11T10:46:25.870Z,20.53
2023-04-11T10:47:25.867Z,20.53
2023-04-11T10:48:25.748Z,20.51
2023-04-11T10:49:25.792Z,20.52
2023-04-11T10:50:25.864Z,20.52
2023-04-11T10:51:25.850Z,20.53
2023-04-11T10:52:25.884Z,20.52
2023-04-11T10:53:25.905Z,20.53
2023-04-11T10:54:25.928Z,20.53
2023-04-11T10:55:26.017Z,20.53
2023-04-11T10:56:26.012Z,20.53
2023-04-11T10:57:26.070Z,20.54
2023-04-11T10:58:26.119Z,20.54
2023-04-11T10:59:26.100Z,20.53
2023-04-11T11:00:26.178Z,20.53
2023-04-11T11:01:32.379Z,20.54
2023-04-11T11:02:27.211Z,20.54
2023-04-11T11:03:26.263Z,20.54
2023-04-11T11:04:26.223Z,20.51
2023-04-11T11:05:26.056Z,20.58
2023-04-11T11:06:26.035Z,20.60
2023-04-11T11:07:26.127Z,20.58
2023-04-11T11:08:25.999Z,20.58
2023-04-11T11:09:26.553Z,20.57
2023-04-11T11:10:25.951Z,20.57
2023-04-11T11:11:26.023Z,20.58
2023-04-11T11:12:25.966Z,20.59
2023-04-11T11:13:25.881Z,20.57
2023-04-11T11:14:25.873Z,20.53
2023-04-11T11:15:25.870Z,20.51
2023-04-11T11:16:25.961Z,20.52
2023-04-11T11:17:26.092Z,20.51
2023-04-11T11:18:25.988Z,20.50
2023-04-11T11:19:26.035Z,20.50
2023-04-11T11:20:26.077Z,20.50
2023-04-11T11:21:28.371Z,20.48
2023-04-11T11:22:26.238Z,20.48
2023-04-11T11:23:26.290Z,20.49
2023-04-11T11:24:26.025Z,20.50
2023-04-11T11:25:27.051Z,20.51
2023-04-11T11:26:25.982Z,20.52
2023-04-11T11:27:25.934Z,20.53
2023-04-11T11:28:25.904Z,20.53
2023-04-11T11:29:26.035Z,20.53
2023-04-11T11:30:25.977Z,20.54
2023-04-11T11:31:25.843Z,20.54
2023-04-11T11:32:25.795Z,20.53
2023-04-11T11:33:25.764Z,20.54
2023-04-11T11:34:25.726Z,20.53
2023-04-11T11:35:26.465Z,20.54
2023-04-11T11:36:25.678Z,20.54
2023-04-11T11:37:25.630Z,20.54
2023-04-11T11:38:25.611Z,20.55
2023-04-11T11:39:25.595Z,20.57
2023-04-11T11:40:25.547Z,20.59
2023-04-11T11:41:25.531Z,20.61
2023-04-11T11:42:25.476Z,20.60
2023-04-11T11:43:25.444Z,20.60
2023-04-11T11:44:25.422Z,20.59
2023-04-11T11:46:25.414Z,20.61
2023-04-11T11:47:25.372Z,20.61
2023-04-11T11:48:25.891Z,20.62
2023-04-11T11:49:26.000Z,20.63
2023-04-11T11:50:25.440Z,20.62
2023-04-11T11:51:25.463Z,20.62
2023-04-11T11:52:25.491Z,20.63
2023-04-11T11:53:25.527Z,20.63
2023-04-11T11:54:25.551Z,20.64
2023-04-11T11:55:26.479Z,20.65
2023-04-11T11:56:25.617Z,20.66
2023-04-11T11:57:25.628Z,20.65
2023-04-11T11:58:25.661Z,20.66
2023-04-11T11:59:25.651Z,20.67
2023-04-11T12:00:25.663Z,20.68
2023-04-11T12:01:25.685Z,20.68
2023-04-11T12:02:25.839Z,20.68
2023-04-11T12:03:25.833Z,20.68
2023-04-11T12:04:25.872Z,20.68
2023-04-11T12:05:26.507Z,20.68
2023-04-11T12:06:25.754Z,20.68
2023-04-11T12:07:25.858Z,20.69
2023-04-11T12:08:25.785Z,20.68
2023-04-11T12:09:25.798Z,20.69
2023-04-11T12:10:25.818Z,20.69
2023-04-11T12:11:25.844Z,20.69
2023-04-11T12:12:25.914Z,20.68
2023-04-11T12:13:25.874Z,20.68
2023-04-11T12:14:25.910Z,20.68
2023-04-11T12:15:25.894Z,20.67
2023-04-11T12:16:25.933Z,20.67
2023-04-11T12:17:25.965Z,20.67
2023-04-11T12:18:26.016Z,20.67
2023-04-11T12:19:25.973Z,20.66
2023-04-11T12:20:26.014Z,20.67
2023-04-11T12:21:26.012Z,20.67
2023-04-11T12:22:26.015Z,20.66
2023-04-11T12:23:26.041Z,20.66
2023-04-11T12:24:26.098Z,20.66
2023-04-11T12:25:26.092Z,20.66
2023-04-11T12:26:26.117Z,20.66
2023-04-11T12:27:26.186Z,20.66
2023-04-11T12:28:26.144Z,20.65
2023-04-11T12:29:26.417Z,20.64
2023-04-11T12:30:27.574Z,20.64
2023-04-11T12:31:26.259Z,20.63
2023-04-11T12:32:26.261Z,20.62
2023-04-11T12:33:26.980Z,20.62
2023-04-11T12:34:26.289Z,20.61
2023-04-11T12:35:26.303Z,20.60
2023-04-11T12:36:26.391Z,20.58
2023-04-11T12:37:26.383Z,20.58
2023-04-11T12:38:26.412Z,20.57
2023-04-11T12:39:26.444Z,20.58
2023-04-11T12:40:26.505Z,20.59
2023-04-11T12:42:27.370Z,20.59
2023-04-11T12:43:26.439Z,20.59
2023-04-11T12:44:26.404Z,20.59
2023-04-11T12:45:26.440Z,20.59
2023-04-11T12:46:26.453Z,20.60
2023-04-11T12:47:26.332Z,20.60
2023-04-11T12:48:26.282Z,20.59
2023-04-11T12:49:26.252Z,20.58
2023-04-11T12:50:26.225Z,20.57
2023-04-11T12:51:26.183Z,20.56
2023-04-11T12:52:26.156Z,20.56
2023-04-11T12:53:26.136Z,20.56
2023-04-11T12:54:26.096Z,20.55
2023-04-11T12:55:26.103Z,20.55
2023-04-11T12:56:26.037Z,20.56